sensor_id;sensor_type;location;lat;lon;timestamp;pressure;altitude;pressure_sealevel;temperature;humidity
74346;BME280;62776;50.518;6.732;2023-02-12T00:00:42;98552.81;;;5.80;100.00
74346;BME280;62776;50.518;6.732;2023-02-12T00:03:29;98548.69;;;5.83;100.00
74346;BME280;62776;50.518;6.732;2023-02-12T00:06:16;98547.78;;;5.83;100.00
74346;BME280;62776;50.518;6.732;2023-02-12T00:09:02;98542.72;;;5.84;100.00
74346;BME280;62776;50.518;6.732;2023-02-12T00:11:48;98544.56;;;5.87;100.00
74346;BME280;62776;50.518;6.732;2023-02-12T00:14:36;98538.31;;;5.82;100.00
74346;BME280;62776;50.518;6.732;2023-02-12T00:17:23;98536.81;;;5.87;100.00
74346;BME280;62776;50.518;6.732;2023-02-12T00:20:09;98540.28;;;5.87;100.00
74346;BME280;62776;50.518;6.732;2023-02-12T00:22:56;98541.13;;;5.88;100.00
74346;BME280;62776;50.518;6.732;2023-02-12T00:25:45;98540.22;;;5.86;100.00
74346;BME280;62776;50.518;6.732;2023-02-12T00:28:31;98543.72;;;5.88;100.00
74346;BME280;62776;50.518;6.732;2023-02-12T00:31:20;98541.06;;;5.85;100.00
74346;BME280;62776;50.518;6.732;2023-02-12T00:34:12;98536.88;;;5.88;100.00
74346;BME280;62776;50.518;6.732;2023-02-12T00:36:59;98541.13;;;5.88;100.00
74346;BME280;62776;50.518;6.732;2023-02-12T00:39:45;98546.44;;;5.91;100.00
74346;BME280;62776;50.518;6.732;2023-02-12T00:42:33;98554.25;;;5.92;100.00
74346;BME280;62776;50.518;6.732;2023-02-12T00:45:19;98543.84;;;5.91;100.00
74346;BME280;62776;50.518;6.732;2023-02-12T00:48:05;98538.69;;;5.91;100.00
74346;BME280;62776;50.518;6.732;2023-02-12T00:50:58;98543.94;;;5.92;100.00
74346;BME280;62776;50.518;6.732;2023-02-12T00:53:44;98537.88;;;5.92;100.00
74346;BME280;62776;50.518;6.732;2023-02-12T00:56:31;98540.47;;;5.92;100.00
74346;BME280;62776;50.518;6.732;2023-02-12T00:59:17;98550.03;;;5.94;100.00
74346;BME280;62776;50.518;6.732;2023-02-12T01:02:04;98548.31;;;5.95;100.00
74346;BME280;62776;50.518;6.732;2023-02-12T01:04:52;98555.94;;;5.92;100.00
74346;BME280;62776;50.518;6.732;2023-02-12T01:07:39;98550.78;;;5.92;100.00
74346;BME280;62776;50.518;6.732;2023-02-12T01:10:26;98548.22;;;5.92;100.00
74346;BME280;62776;50.518;6.732;2023-02-12T01:13:14;98552.34;;;5.88;100.00
74346;BME280;62776;50.518;6.732;2023-02-12T01:16:15;98550.66;;;5.89;100.00
74346;BME280;62776;50.518;6.732;2023-02-12T01:19:03;98554.16;;;5.91;100.00
74346;BME280;62776;50.518;6.732;2023-02-12T01:21:49;98551.59;;;5.91;100.00
74346;BME280;62776;50.518;6.732;2023-02-12T01:24:36;98553.13;;;5.86;100.00
74346;BME280;62776;50.518;6.732;2023-02-12T01:27:24;98555.69;;;5.86;100.00
74346;BME280;62776;50.518;6.732;2023-02-12T01:30:13;98557.22;;;5.82;100.00
74346;BME280;62776;50.518;6.732;2023-02-12T01:33:00;98546.75;;;5.78;100.00
74346;BME280;62776;50.518;6.732;2023-02-12T01:35:47;98545.69;;;5.73;100.00
74346;BME280;62776;50.518;6.732;2023-02-12T01:38:33;98540.50;;;5.73;100.00
74346;BME280;62776;50.518;6.732;2023-02-12T01:41:23;98548.13;;;5.70;100.00
74346;BME280;62776;50.518;6.732;2023-02-12T01:44:17;98545.69;;;5.73;100.00
74346;BME280;62776;50.518;6.732;2023-02-12T01:47:05;98545.56;;;5.70;100.00
74346;BME280;62776;50.518;6.732;2023-02-12T01:49:51;98539.72;;;5.74;100.00
74346;BME280;62776;50.518;6.732;2023-02-12T01:52:40;98538.81;;;5.73;100.00
74346;BME280;62776;50.518;6.732;2023-02-12T01:55:29;98530.25;;;5.74;100.00
74346;BME280;62776;50.518;6.732;2023-02-12T01:58:16;98532.94;;;5.77;100.00
74346;BME280;62776;50.518;6.732;2023-02-12T02:01:05;98536.38;;;5.76;100.00
74346;BME280;62776;50.518;6.732;2023-02-12T02:04:01;98531.09;;;5.73;100.00
74346;BME280;62776;50.518;6.732;2023-02-12T02:07:00;98533.16;;;5.61;100.00
74346;BME280;62776;50.518;6.732;2023-02-12T02:09:49;98529.25;;;5.71;100.00
74346;BME280;62776;50.518;6.732;2023-02-12T02:12:36;98524.91;;;5.70;100.00
74346;BME280;62776;50.518;6.732;2023-02-12T02:15:45;98533.47;;;5.69;100.00
74346;BME280;62776;50.518;6.732;2023-02-12T02:18:49;98522.16;;;5.65;100.00
74346;BME280;62776;50.518;6.732;2023-02-12T02:25:02;98518.22;;;5.75;100.00
74346;BME280;62776;50.518;6.732;2023-02-12T02:28:27;98523.25;;;5.72;100.00
74346;BME280;62776;50.518;6.732;2023-02-12T02:40:42;98517.41;;;5.76;100.00
74346;BME280;62776;50.518;6.732;2023-02-12T02:43:51;98521.66;;;5.74;100.00
74346;BME280;62776;50.518;6.732;2023-02-12T02:46:48;98525.22;;;5.77;100.00
74346;BME280;62776;50.518;6.732;2023-02-12T02:49:44;98515.91;;;5.81;100.00
74346;BME280;62776;50.518;6.732;2023-02-12T02:53:01;98509.94;;;5.61;100.00
74346;BME280;62776;50.518;6.732;2023-02-12T02:56:03;98514.84;;;5.76;100.00
74346;BME280;62776;50.518;6.732;2023-02-12T02:59:04;98512.00;;;5.70;100.00
74346;BME280;62776;50.518;6.732;2023-02-12T03:02:06;98504.28;;;5.70;100.00
74346;BME280;62776;50.518;6.732;2023-02-12T03:05:03;98506.91;;;5.71;100.00
74346;BME280;62776;50.518;6.732;2023-02-12T03:07:55;98506.22;;;5.75;100.00
74346;BME280;62776;50.518;6.732;2023-02-12T03:10:45;98513.66;;;5.26;100.00
74346;BME280;62776;50.518;6.732;2023-02-12T03:13:41;98512.47;;;5.60;100.00
74346;BME280;62776;50.518;6.732;2023-02-12T03:16:31;98507.56;;;5.66;100.00
74346;BME280;62776;50.518;6.732;2023-02-12T03:19:22;98510.31;;;5.70;100.00
74346;BME280;62776;50.518;6.732;2023-02-12T03:22:20;98512.94;;;5.72;100.00
74346;BME280;62776;50.518;6.732;2023-02-12T03:25:49;98510.69;;;5.59;100.00
74346;BME280;62776;50.518;6.732;2023-02-12T03:28:36;98515.47;;;5.70;100.00
74346;BME280;62776;50.518;6.732;2023-02-12T03:31:48;98510.81;;;5.62;100.00
74346;BME280;62776;50.518;6.732;2023-02-12T03:34:58;98512.06;;;5.71;100.00
74346;BME280;62776;50.518;6.732;2023-02-12T03:37:55;98512.72;;;5.66;100.00
74346;BME280;62776;50.518;6.732;2023-02-12T03:41:14;98510.31;;;5.50;100.00
74346;BME280;62776;50.518;6.732;2023-02-12T03:44:14;98509.31;;;5.67;100.00
74346;BME280;62776;50.518;6.732;2023-02-12T03:47:15;98507.22;;;5.58;100.00
74346;BME280;62776;50.518;6.732;2023-02-12T03:53:29;98513.78;;;5.71;100.00
74346;BME280;62776;50.518;6.732;2023-02-12T03:59:25;98503.69;;;5.77;100.00
74346;BME280;62776;50.518;6.732;2023-02-12T04:02:17;98501.09;;;5.77;100.00
74346;BME280;62776;50.518;6.732;2023-02-12T04:05:06;98507.28;;;5.80;100.00
74346;BME280;62776;50.518;6.732;2023-02-12T04:07:54;98504.75;;;5.82;100.00
74346;BME280;62776;50.518;6.732;2023-02-12T04:10:57;98509.94;;;5.82;100.00
74346;BME280;62776;50.518;6.732;2023-02-12T04:14:07;98503.13;;;5.63;100.00
74346;BME280;62776;50.518;6.732;2023-02-12T04:26:16;98510.81;;;5.62;100.00
74346;BME280;62776;50.518;6.732;2023-02-12T04:32:46;98513.41;;;5.62;100.00
74346;BME280;62776;50.518;6.732;2023-02-12T04:35:47;98519.75;;;5.70;100.00
74346;BME280;62776;50.518;6.732;2023-02-12T04:38:45;98516.38;;;5.71;100.00
74346;BME280;62776;50.518;6.732;2023-02-12T04:41:34;98520.25;;;5.82;100.00
74346;BME280;62776;50.518;6.732;2023-02-12T04:44:28;98522.75;;;5.80;100.00
74346;BME280;62776;50.518;6.732;2023-02-12T04:47:17;98525.41;;;5.82;100.00
74346;BME280;62776;50.518;6.732;2023-02-12T04:50:16;98523.13;;;5.69;100.00
74346;BME280;62776;50.518;6.732;2023-02-12T04:53:01;98534.09;;;5.84;100.00
74346;BME280;62776;50.518;6.732;2023-02-12T04:55:53;98536.59;;;5.82;100.00
74346;BME280;62776;50.518;6.732;2023-02-12T04:58:42;98537.34;;;5.80;100.00
74346;BME280;62776;50.518;6.732;2023-02-12T05:01:28;98531.44;;;5.82;100.00
74346;BME280;62776;50.518;6.732;2023-02-12T05:04:18;98535.78;;;5.83;100.00
74346;BME280;62776;50.518;6.732;2023-02-12T05:07:11;98530.56;;;5.82;100.00
74346;BME280;62776;50.518;6.732;2023-02-12T05:10:00;98534.97;;;5.84;100.00
74346;BME280;62776;50.518;6.732;2023-02-12T05:12:46;98533.19;;;5.83;100.00
74346;BME280;62776;50.518;6.732;2023-02-12T05:15:32;98525.56;;;5.85;100.00
74346;BME280;62776;50.518;6.732;2023-02-12T05:18:20;98530.56;;;5.82;100.00
74346;BME280;62776;50.518;6.732;2023-02-12T05:21:10;98534.84;;;5.81;100.00
74346;BME280;62776;50.518;6.732;2023-02-12T05:23:59;98537.34;;;5.80;100.00
74346;BME280;62776;50.518;6.732;2023-02-12T05:26:52;98545.81;;;5.76;100.00
74346;BME280;62776;50.518;6.732;2023-02-12T05:29:41;98542.63;;;5.83;100.00
74346;BME280;62776;50.518;6.732;2023-02-12T05:32:27;98543.69;;;5.86;100.00
74346;BME280;62776;50.518;6.732;2023-02-12T05:35:15;98541.13;;;5.88;100.00
74346;BME280;62776;50.518;6.732;2023-02-12T05:38:04;98544.69;;;5.90;100.00
74346;BME280;62776;50.518;6.732;2023-02-12T05:40:53;98541.25;;;5.91;100.00
74346;BME280;62776;50.518;6.732;2023-02-12T05:43:39;98541.25;;;5.91;100.00
74346;BME280;62776;50.518;6.732;2023-02-12T05:46:26;98542.16;;;5.91;100.00
74346;BME280;62776;50.518;6.732;2023-02-12T05:49:12;98545.63;;;5.92;100.00
74346;BME280;62776;50.518;6.732;2023-02-12T05:51:58;98549.97;;;5.93;100.00
74346;BME280;62776;50.518;6.732;2023-02-12T05:54:47;98546.56;;;5.94;100.00
74346;BME280;62776;50.518;6.732;2023-02-12T05:57:33;98536.88;;;5.88;100.00
74346;BME280;62776;50.518;6.732;2023-02-12T06:00:20;98545.38;;;5.86;100.00
74346;BME280;62776;50.518;6.732;2023-02-12T06:03:06;98541.06;;;5.85;100.00
74346;BME280;62776;50.518;6.732;2023-02-12T06:05:53;98533.97;;;5.81;100.00
74346;BME280;62776;50.518;6.732;2023-02-12T06:08:41;98537.34;;;5.80;100.00
74346;BME280;62776;50.518;6.732;2023-02-12T06:11:27;98537.44;;;5.81;100.00
74346;BME280;62776;50.518;6.732;2023-02-12T06:14:16;98539.13;;;5.81;100.00
74346;BME280;62776;50.518;6.732;2023-02-12T06:17:03;98545.38;;;5.86;100.00
74346;BME280;62776;50.518;6.732;2023-02-12T06:19:50;98540.28;;;5.87;100.00
74346;BME280;62776;50.518;6.732;2023-02-12T06:22:36;98537.75;;;5.89;100.00
74346;BME280;62776;50.518;6.732;2023-02-12T06:25:23;98546.44;;;5.91;100.00
74346;BME280;62776;50.518;6.732;2023-02-12T06:28:09;98545.56;;;5.90;100.00
74346;BME280;62776;50.518;6.732;2023-02-12T06:30:56;98553.31;;;5.90;100.00
74346;BME280;62776;50.518;6.732;2023-02-12T06:33:44;98551.59;;;5.91;100.00
74346;BME280;62776;50.518;6.732;2023-02-12T06:36:35;98555.91;;;5.90;100.00
74346;BME280;62776;50.518;6.732;2023-02-12T06:39:22;98555.94;;;5.92;100.00
74346;BME280;62776;50.518;6.732;2023-02-12T06:42:08;98558.53;;;5.92;100.00
74346;BME280;62776;50.518;6.732;2023-02-12T06:44:56;98553.38;;;5.92;100.00
74346;BME280;62776;50.518;6.732;2023-02-12T06:47:43;98556.75;;;5.91;100.00
74346;BME280;62776;50.518;6.732;2023-02-12T06:50:30;98555.06;;;5.91;100.00
74346;BME280;62776;50.518;6.732;2023-02-12T06:53:20;98563.28;;;5.83;100.00
74346;BME280;62776;50.518;6.732;2023-02-12T06:56:09;98561.53;;;5.82;100.00
74346;BME280;62776;50.518;6.732;2023-02-12T06:58:58;98563.91;;;5.77;100.00
74346;BME280;62776;50.518;6.732;2023-02-12T07:01:51;98574.44;;;5.82;100.00
74346;BME280;62776;50.518;6.732;2023-02-12T07:04:42;98577.81;;;5.81;100.00
74346;BME280;62776;50.518;6.732;2023-02-12T07:07:28;98578.75;;;5.83;100.00
74346;BME280;62776;50.518;6.732;2023-02-12T07:10:16;98587.38;;;5.83;100.00
74346;BME280;62776;50.518;6.732;2023-02-12T07:13:05;98584.75;;;5.82;100.00
74346;BME280;62776;50.518;6.732;2023-02-12T07:15:51;98586.59;;;5.84;100.00
74346;BME280;62776;50.518;6.732;2023-02-12T07:18:38;98594.41;;;5.86;100.00
74346;BME280;62776;50.518;6.732;2023-02-12T07:21:24;98591.06;;;5.88;100.00
74346;BME280;62776;50.518;6.732;2023-02-12T07:24:17;98592.75;;;5.88;100.00
74346;BME280;62776;50.518;6.732;2023-02-12T07:27:03;98580.81;;;5.90;100.00
74346;BME280;62776;50.518;6.732;2023-02-12T07:29:50;98586.13;;;5.93;100.00
74346;BME280;62776;50.518;6.732;2023-02-12T07:32:36;98588.78;;;5.96;100.00
74346;BME280;62776;50.518;6.732;2023-02-12T07:35:23;98599.25;;;5.99;100.00
74346;BME280;62776;50.518;6.732;2023-02-12T07:38:22;98594.66;;;5.92;100.00
74346;BME280;62776;50.518;6.732;2023-02-12T07:41:20;98587.97;;;5.97;100.00
74346;BME280;62776;50.518;6.732;2023-02-12T07:44:09;98592.38;;;6.00;100.00
74346;BME280;62776;50.518;6.732;2023-02-12T07:46:55;98590.09;;;6.07;100.00
74346;BME280;62776;50.518;6.732;2023-02-12T07:49:42;98593.75;;;6.12;100.00
74346;BME280;62776;50.518;6.732;2023-02-12T07:52:36;98592.88;;;6.12;100.00
74346;BME280;62776;50.518;6.732;2023-02-12T07:55:35;98589.41;;;6.11;100.00
74346;BME280;62776;50.518;6.732;2023-02-12T07:58:23;98592.13;;;6.14;100.00
74346;BME280;62776;50.518;6.732;2023-02-12T08:01:36;98601.69;;;5.96;100.00
74346;BME280;62776;50.518;6.732;2023-02-12T08:04:24;98608.38;;;6.12;100.00
74346;BME280;62776;50.518;6.732;2023-02-12T08:07:10;98600.91;;;6.19;100.00
74346;BME280;62776;50.518;6.732;2023-02-12T08:10:02;98606.09;;;6.19;100.00
74346;BME280;62776;50.518;6.732;2023-02-12T08:12:49;98605.50;;;6.26;100.00
74346;BME280;62776;50.518;6.732;2023-02-12T08:15:36;98601.41;;;6.31;100.00
74346;BME280;62776;50.518;6.732;2023-02-12T08:18:22;98602.38;;;6.35;100.00
74346;BME280;62776;50.518;6.732;2023-02-12T08:21:14;98606.69;;;6.34;100.00
74346;BME280;62776;50.518;6.732;2023-02-12T08:24:01;98609.69;;;6.45;100.00
74346;BME280;62776;50.518;6.732;2023-02-12T08:26:48;98603.81;;;6.49;100.00
74346;BME280;62776;50.518;6.732;2023-02-12T08:29:34;98610.91;;;6.54;100.00
74346;BME280;62776;50.518;6.732;2023-02-12T08:32:20;98608.53;;;6.59;100.00
74346;BME280;62776;50.518;6.732;2023-02-12T08:35:10;98607.75;;;6.62;100.00
74346;BME280;62776;50.518;6.732;2023-02-12T08:37:56;98612.28;;;6.67;100.00
74346;BME280;62776;50.518;6.732;2023-02-12T08:40:43;98610.78;;;6.74;100.00
74346;BME280;62776;50.518;6.732;2023-02-12T08:43:33;98604.91;;;6.78;100.00
74346;BME280;62776;50.518;6.732;2023-02-12T08:46:24;98606.78;;;6.82;100.00
74346;BME280;62776;50.518;6.732;2023-02-12T08:49:13;98606.13;;;6.87;100.00
74346;BME280;62776;50.518;6.732;2023-02-12T08:52:00;98609.06;;;6.96;100.00
74346;BME280;62776;50.518;6.732;2023-02-12T08:54:47;98609.31;;;7.04;100.00
74346;BME280;62776;50.518;6.732;2023-02-12T08:57:36;98604.16;;;7.04;100.00
74346;BME280;62776;50.518;6.732;2023-02-12T09:00:23;98606.19;;;7.12;100.00
74346;BME280;62776;50.518;6.732;2023-02-12T09:03:10;98604.63;;;7.18;100.00
74346;BME280;62776;50.518;6.732;2023-02-12T09:05:57;98600.56;;;7.24;100.00
74346;BME280;62776;50.518;6.732;2023-02-12T09:08:44;98595.44;;;7.26;100.00
74346;BME280;62776;50.518;6.732;2023-02-12T09:11:33;98600.84;;;7.32;100.00
74346;BME280;62776;50.518;6.732;2023-02-12T09:14:26;98600.16;;;7.37;100.00
74346;BME280;62776;50.518;6.732;2023-02-12T09:17:14;98601.16;;;7.41;100.00
74346;BME280;62776;50.518;6.732;2023-02-12T09:20:01;98603.69;;;7.39;100.00
74346;BME280;62776;50.518;6.732;2023-02-12T09:22:48;98601.09;;;7.39;100.00
74346;BME280;62776;50.518;6.732;2023-02-12T09:25:37;98596.88;;;7.41;100.00
74346;BME280;62776;50.518;6.732;2023-02-12T09:28:27;98598.06;;;7.51;100.00
74346;BME280;62776;50.518;6.732;2023-02-12T09:31:15;98600.91;;;7.58;100.00
74346;BME280;62776;50.518;6.732;2023-02-12T09:34:04;98589.94;;;7.65;100.00
74346;BME280;62776;50.518;6.732;2023-02-12T09:36:51;98600.66;;;7.76;100.00
74346;BME280;62776;50.518;6.732;2023-02-12T09:39:39;98594.72;;;7.80;100.00
74346;BME280;62776;50.518;6.732;2023-02-12T09:43:03;98598.63;;;7.67;100.00
74346;BME280;62776;50.518;6.732;2023-02-12T09:52:26;98595.09;;;7.91;100.00
74346;BME280;62776;50.518;6.732;2023-02-12T09:55:15;98601.69;;;8.08;100.00
74346;BME280;62776;50.518;6.732;2023-02-12T09:58:19;98595.78;;;8.12;100.00
74346;BME280;62776;50.518;6.732;2023-02-12T10:01:12;98601.19;;;8.19;100.00
74346;BME280;62776;50.518;6.732;2023-02-12T10:03:59;98609.31;;;8.28;100.00
74346;BME280;62776;50.518;6.732;2023-02-12T10:06:59;98611.84;;;8.27;100.00
74346;BME280;62776;50.518;6.732;2023-02-12T10:10:20;98617.66;;;8.21;100.00
74346;BME280;62776;50.518;6.732;2023-02-12T10:17:27;98628.13;;;8.24;100.00
74346;BME280;62776;50.518;6.732;2023-02-12T10:26:37;98628.88;;;8.46;100.00
74346;BME280;62776;50.518;6.732;2023-02-12T10:29:30;98628.09;;;8.50;100.00
74346;BME280;62776;50.518;6.732;2023-02-12T10:32:29;98625.59;;;8.53;100.00
74346;BME280;62776;50.518;6.732;2023-02-12T10:35:21;98636.22;;;8.60;100.00
74346;BME280;62776;50.518;6.732;2023-02-12T10:38:20;98626.59;;;8.56;100.00
74346;BME280;62776;50.518;6.732;2023-02-12T10:41:15;98626.69;;;8.59;100.00
74346;BME280;62776;50.518;6.732;2023-02-12T10:44:01;98616.66;;;8.71;100.00
74346;BME280;62776;50.518;6.732;2023-02-12T10:46:48;98618.47;;;8.74;100.00
74346;BME280;62776;50.518;6.732;2023-02-12T10:49:34;98615.09;;;8.76;100.00
74346;BME280;62776;50.518;6.732;2023-02-12T10:52:46;98619.94;;;8.64;100.00
74346;BME280;62776;50.518;6.732;2023-02-12T10:55:35;98624.28;;;8.37;100.00
74346;BME280;62776;50.518;6.732;2023-02-12T10:58:24;98616.75;;;8.74;100.00
74346;BME280;62776;50.518;6.732;2023-02-12T11:01:19;98619.22;;;8.70;100.00
74346;BME280;62776;50.518;6.732;2023-02-12T11:04:29;98619.03;;;8.64;100.00
74346;BME280;62776;50.518;6.732;2023-02-12T11:07:17;98613.59;;;8.84;100.00
74346;BME280;62776;50.518;6.732;2023-02-12T11:10:24;98611.59;;;8.74;100.00
74346;BME280;62776;50.518;6.732;2023-02-12T11:13:24;98605.66;;;8.78;100.00
74346;BME280;62776;50.518;6.732;2023-02-12T11:16:12;98601.75;;;8.93;100.00
74346;BME280;62776;50.518;6.732;2023-02-12T11:19:06;98613.88;;;8.94;100.00
74346;BME280;62776;50.518;6.732;2023-02-12T11:22:14;98598.00;;;8.83;100.00
74346;BME280;62776;50.518;6.732;2023-02-12T11:25:14;98597.41;;;8.92;100.00
74346;BME280;62776;50.518;6.732;2023-02-12T11:28:18;98598.22;;;8.90;100.00
74346;BME280;62776;50.518;6.732;2023-02-12T11:34:30;98586.66;;;8.79;100.00
74346;BME280;62776;50.518;6.732;2023-02-12T11:37:18;98582.22;;;9.05;100.00
74346;BME280;62776;50.518;6.732;2023-02-12T11:40:14;98583.28;;;9.12;100.00
74346;BME280;62776;50.518;6.732;2023-02-12T11:43:12;98579.75;;;9.10;100.00
74346;BME280;62776;50.518;6.732;2023-02-12T11:46:02;98578.84;;;9.09;100.00
74346;BME280;62776;50.518;6.732;2023-02-12T11:48:51;98573.84;;;9.15;100.00
74346;BME280;62776;50.518;6.732;2023-02-12T11:51:38;98573.13;;;9.21;100.00
74346;BME280;62776;50.518;6.732;2023-02-12T11:54:28;98569.63;;;9.19;100.00
74346;BME280;62776;50.518;6.732;2023-02-12T11:57:46;98568.38;;;9.05;100.00
74346;BME280;62776;50.518;6.732;2023-02-12T12:00:42;98568.09;;;9.25;100.00
74346;BME280;62776;50.518;6.732;2023-02-12T12:06:45;98558.63;;;9.27;100.00
74346;BME280;62776;50.518;6.732;2023-02-12T12:09:49;98555.97;;;9.26;100.00
74346;BME280;62776;50.518;6.732;2023-02-12T12:12:52;98551.94;;;9.37;100.00
74346;BME280;62776;50.518;6.732;2023-02-12T12:15:45;98554.72;;;9.43;100.00
74346;BME280;62776;50.518;6.732;2023-02-12T12:19:01;98549.50;;;9.43;100.00
74346;BME280;62776;50.518;6.732;2023-02-12T12:31:11;98535.06;;;9.53;100.00
74346;BME280;62776;50.518;6.732;2023-02-12T12:34:16;98543.59;;;9.48;100.00
74346;BME280;62776;50.518;6.732;2023-02-12T12:37:33;98529.56;;;9.40;100.00
74346;BME280;62776;50.518;6.732;2023-02-12T12:41:03;98528.59;;;9.37;100.00
74346;BME280;62776;50.518;6.732;2023-02-12T12:44:08;98528.28;;;9.58;100.00
74346;BME280;62776;50.518;6.732;2023-02-12T12:53:34;98534.03;;;9.46;100.00
74346;BME280;62776;50.518;6.732;2023-02-12T13:09:57;98512.94;;;9.34;100.00
74346;BME280;62776;50.518;6.732;2023-02-12T13:12:55;98513.50;;;9.55;100.00
74346;BME280;62776;50.518;6.732;2023-02-12T13:25:27;98505.19;;;9.35;100.00
74346;BME280;62776;50.518;6.732;2023-02-12T13:28:41;98503.50;;;9.36;100.00
74346;BME280;62776;50.518;6.732;2023-02-12T13:31:30;98492.59;;;9.50;100.00
74346;BME280;62776;50.518;6.732;2023-02-12T13:34:27;98491.66;;;9.47;100.00
74346;BME280;62776;50.518;6.732;2023-02-12T13:37:40;98489.16;;;9.50;100.00
74346;BME280;62776;50.518;6.732;2023-02-12T13:40:27;98489.97;;;9.49;100.00
74346;BME280;62776;50.518;6.732;2023-02-12T13:46:47;98483.06;;;9.49;100.00
74346;BME280;62776;50.518;6.732;2023-02-12T13:49:43;98477.84;;;9.15;100.00
74346;BME280;62776;50.518;6.732;2023-02-12T13:52:43;98483.88;;;9.47;100.00
74346;BME280;62776;50.518;6.732;2023-02-12T13:55:44;98478.78;;;9.52;100.00
74346;BME280;62776;50.518;6.732;2023-02-12T14:01:43;98475.16;;;9.45;100.00
74346;BME280;62776;50.518;6.732;2023-02-12T14:07:59;98465.47;;;9.38;100.00
74346;BME280;62776;50.518;6.732;2023-02-12T14:11:03;98469.03;;;9.41;100.00
74346;BME280;62776;50.518;6.732;2023-02-12T14:13:59;98473.56;;;9.50;100.00
74346;BME280;62776;50.518;6.732;2023-02-12T14:16:46;98469.47;;;9.60;100.00
74346;BME280;62776;50.518;6.732;2023-02-12T14:25:32;98470.69;;;9.39;100.00
74346;BME280;62776;50.518;6.732;2023-02-12T14:31:21;98472.75;;;9.53;100.00
74346;BME280;62776;50.518;6.732;2023-02-12T14:37:15;98470.75;;;9.42;100.00
74346;BME280;62776;50.518;6.732;2023-02-12T14:40:41;98470.28;;;9.23;100.00
74346;BME280;62776;50.518;6.732;2023-02-12T14:43:37;98468.81;;;9.00;100.00
74346;BME280;62776;50.518;6.732;2023-02-12T14:49:45;98469.50;;;9.27;100.00
74346;BME280;62776;50.518;6.732;2023-02-12T14:52:38;98464.56;;;9.36;100.00
74346;BME280;62776;50.518;6.732;2023-02-12T14:55:34;98468.97;;;9.40;100.00
74346;BME280;62776;50.518;6.732;2023-02-12T14:58:24;98457.69;;;9.38;100.00
74346;BME280;62776;50.518;6.732;2023-02-12T15:01:11;98463.03;;;9.44;100.00
74346;BME280;62776;50.518;6.732;2023-02-12T15:03:58;98461.25;;;9.43;100.00
74346;BME280;62776;50.518;6.732;2023-02-12T15:07:13;98471.19;;;9.25;100.00
74346;BME280;62776;50.518;6.732;2023-02-12T15:10:20;98472.28;;;9.34;100.00
74346;BME280;62776;50.518;6.732;2023-02-12T15:13:24;98464.66;;;9.40;100.00
74346;BME280;62776;50.518;6.732;2023-02-12T15:19:11;98464.41;;;9.30;100.00
74346;BME280;62776;50.518;6.732;2023-02-12T15:22:00;98470.56;;;9.33;100.00
74346;BME280;62776;50.518;6.732;2023-02-12T15:24:49;98472.28;;;9.33;100.00
74346;BME280;62776;50.518;6.732;2023-02-12T15:27:38;98469.50;;;9.27;100.00
74346;BME280;62776;50.518;6.732;2023-02-12T15:30:32;98466.59;;;9.15;100.00
74346;BME280;62776;50.518;6.732;2023-02-12T15:33:28;98470.06;;;9.15;100.00
74346;BME280;62776;50.518;6.732;2023-02-12T15:36:23;98463.09;;;9.13;100.00
74346;BME280;62776;50.518;6.732;2023-02-12T15:39:17;98467.44;;;9.14;100.00
74346;BME280;62776;50.518;6.732;2023-02-12T15:42:21;98471.13;;;9.22;100.00
74346;BME280;62776;50.518;6.732;2023-02-12T15:45:18;98464.69;;;9.08;100.00
74346;BME280;62776;50.518;6.732;2023-02-12T15:48:12;98467.44;;;9.14;100.00
74346;BME280;62776;50.518;6.732;2023-02-12T15:54:19;98462.66;;;8.96;100.00
74346;BME280;62776;50.518;6.732;2023-02-12T15:57:10;98461.03;;;9.00;100.00
74346;BME280;62776;50.518;6.732;2023-02-12T16:00:06;98453.97;;;8.96;100.00
74346;BME280;62776;50.518;6.732;2023-02-12T16:02:53;98461.94;;;9.02;100.00
74346;BME280;62776;50.518;6.732;2023-02-12T16:05:40;98458.44;;;9.01;100.00
74346;BME280;62776;50.518;6.732;2023-02-12T16:08:26;98458.44;;;9.00;100.00
74346;BME280;62776;50.518;6.732;2023-02-12T16:11:18;98461.72;;;8.93;100.00
74346;BME280;62776;50.518;6.732;2023-02-12T16:17:35;98451.16;;;8.86;100.00
74346;BME280;62776;50.518;6.732;2023-02-12T16:20:25;98454.56;;;8.84;100.00
74346;BME280;62776;50.518;6.732;2023-02-12T16:23:13;98460.66;;;8.86;100.00
74346;BME280;62776;50.518;6.732;2023-02-12T16:26:00;98458.94;;;8.86;100.00
74346;BME280;62776;50.518;6.732;2023-02-12T16:28:51;98458.88;;;8.83;100.00
74346;BME280;62776;50.518;6.732;2023-02-12T16:32:04;98451.59;;;8.70;100.00
74346;BME280;62776;50.518;6.732;2023-02-12T16:38:02;98447.16;;;8.66;100.00
74346;BME280;62776;50.518;6.732;2023-02-12T16:46:55;98455.44;;;8.53;100.00
74346;BME280;62776;50.518;6.732;2023-02-12T16:49:56;98441.19;;;8.39;100.00
74346;BME280;62776;50.518;6.732;2023-02-12T16:52:43;98452.63;;;8.46;100.00
74346;BME280;62776;50.518;6.732;2023-02-12T16:55:32;98456.88;;;8.44;100.00
74346;BME280;62776;50.518;6.732;2023-02-12T16:58:18;98455.97;;;8.42;100.00
74346;BME280;62776;50.518;6.732;2023-02-12T17:01:04;98463.63;;;8.37;100.00
74346;BME280;62776;50.518;6.732;2023-02-12T17:03:53;98460.03;;;8.34;100.00
74346;BME280;62776;50.518;6.732;2023-02-12T17:06:58;98465.59;;;8.17;100.00
74346;BME280;62776;50.518;6.732;2023-02-12T17:09:47;98463.28;;;8.26;100.00
74346;BME280;62776;50.518;6.732;2023-02-12T17:12:47;98464.69;;;8.17;100.00
74346;BME280;62776;50.518;6.732;2023-02-12T17:15:39;98461.13;;;8.13;100.00
74346;BME280;62776;50.518;6.732;2023-02-12T17:18:27;98469.06;;;8.18;100.00
74346;BME280;62776;50.518;6.732;2023-02-12T17:21:37;98458.88;;;7.96;100.00
74346;BME280;62776;50.518;6.732;2023-02-12T17:24:33;98465.16;;;8.04;100.00
74346;BME280;62776;50.518;6.732;2023-02-12T17:27:22;98471.06;;;8.00;100.00
74346;BME280;62776;50.518;6.732;2023-02-12T17:30:16;98464.94;;;7.96;100.00
74346;BME280;62776;50.518;6.732;2023-02-12T17:33:06;98471.06;;;8.00;100.00